Tiempo atmosférico en la estación meteorológica de Lugo, Lugo (442 m.)



Fecha
DESCASC
Temp. máxima en grados centígrados (hora)
DESCASC
Temp. mínima en grados centígrados (hora)
DESCASC
Temp. media en grados centígrados
DESCASC
Racha de viento máxima en m/sg (hora)
DESCASC
Velocidad máxima media en intervalos de 10 minutos(hora)
DESCASC
Precipitaciones diarias en mm
DESCASC
Precipitaciones de 00:00 a 06:00 en mm
DESCASC
Precipitaciones de 06:00 a 12:00 en mm
DESCASC
Precipitaciones de 12:00 a 18:00 en mm
DESCASC
Precipitaciones de 18:00 a 24:00 en mm
DESCASC
24-09-2020 16 (15:50) 10.3 (08:40) 13.2 12.22 (15:10) 4.72 (12:50) 4.2 0 0 2 2.2
23-09-2020 21.5 (16:20) 14.8 (00:00) 18.2 8.89 (19:00) 4.17 (17:20) 1.8 1.6 0.2 0 0
22-09-2020 24.3 (18:00) 14 (00:00) 19.1 7.22 (20:10) 3.06 (20:10) 3.2 0 0 0 3.2
21-09-2020 24.6 (18:30) 15.1 (00:00) 19.9 4.72 (20:40) 2.22 (17:40) 0 0 0 0 0
20-09-2020 24.6 (17:00) 14.7 (00:00) 19.7 6.94 (19:20) 2.78 (19:20) 1 0 0.2 0 0.8
19-09-2020 21.1 (13:20) 12.8 (00:00) 17 5.28 (14:40) 2.5 (10:40) 0.4 0 0 0.4 0
18-09-2020 26.5 (17:40) 14.8 (00:00) 20.7 6.67 (19:20) 3.33 (19:20) 5.8 5.8 0 0 0
17-09-2020 31.2 (17:10) 15.9 (00:00) 23.6 12.22 (20:00) 3.61 (19:50) 13.8 0.2 0 0 13.6
16-09-2020 30.9 (15:50) 12.3 (00:00) 21.6 8.61 (17:50) 3.61 (18:00) 0 0 0 0 0
15-09-2020 27.5 (17:30) 14.6 (00:00) 21.1 6.67 (15:40) 2.78 (15:40) 0 0 0 0 0
14-09-2020 28.6 (16:30) 16.1 (00:00) 22.4 6.11 (17:40) 3.33 (16:40) 0 0 0 0 0
13-09-2020 36.9 (17:40) 14.5 (00:00) 25.7 5.56 (19:30) 2.78 (19:30) 0 0 0 0 0
12-09-2020 30.8 (15:50) 13.2 (00:00) 22 6.11 (16:40) 3.06 (17:30) 0 0 0 0 0
11-09-2020 31.6 (16:40) 14.2 (00:00) 22.9 6.67 (19:50) 3.61 (18:30) 0 0 0 0 0
10-09-2020 29.1 (16:20) 11.8 (00:00) 20.5 6.67 (18:50) 3.33 (17:50) 0 0 0 0 0
09-09-2020 28.7 (15:50) 10.2 (00:00) 19.5 7.22 (20:20) 3.61 (20:10) 0 0 0 0 0
08-09-2020 26.8 (16:00) 9.2 (00:00) 18 6.94 (19:50) 3.61 (19:10) 0 0 0 0 0
07-09-2020 24.5 (14:50) 12.1 (08:10) 18.3 10.56 (15:20) 4.44 (19:20) 0 0 0 0 0
06-09-2020 21.1 (15:00) 13.7 (00:00) 17.4 9.72 (19:00) 4.72 (17:10) 0 0 0 0 0
05-09-2020 21.9 (17:40) 15.9 (00:00) 18.9 10 (14:50) 5 (12:20) 0 0 0 0 0
04-09-2020 33.8 (17:10) 13.5 (00:00) 23.6 7.22 (16:10) 3.06 (16:50) 0 0 0 0 0
03-09-2020 34 (17:00) 13.7 (00:00) 23.8 4.72 (20:20) 1.94 (16:30) 0 0 0 0 0
02-09-2020 27.5 (16:40) 11.6 (00:00) 19.6 6.39 (20:50) 3.33 (19:40) 0 0 0 0 0
01-09-2020 24.2 (15:20) 11.4 (00:00) 17.8 10 (20:00) 4.72 (18:50) 0 0 0 0 0
31-08-2020 26.4 (16:50) 6.9 (00:00) 16.6 8.61 (15:00) 3.33 (15:00) 0 0 0 0 0
30-08-2020 20 (17:40) 10.1 (00:00) 15.1 8.06 (19:30) 4.17 (15:10) 0 0 0 0 0
29-08-2020 19.9 (16:50) 11.4 (00:00) 15.6 9.17 (17:10) 4.17 (17:00) 2.6 1.4 0.4 0.8 0
28-08-2020 21 (14:30) 12.5 (00:00) 16.8 9.72 (16:20) 4.17 (16:30) 0.2 0 0.2 0 0
27-08-2020 26.9 (17:10) 18.9 (00:00) 22.9 7.22 (15:50) 3.89 (18:40) 0 0 0 0 0
26-08-2020 32.2 (17:30) 17.3 (00:00) 24.8 5.56 (20:50) 2.78 (20:50) 0 0 0 0 0

Gráficas

Temp. máximas Temp. mínimas Temp. medias Precipitaciones Rachas de viento máximas Velocidades máximas media en intervalos de 10 minutos

Datos horarios

Fecha y hora oficial Temperatura (ºC) Velocidad del viento (km/h) Dirección del viento Racha (km/h) Dirección de racha Precipitación (mm) Presión (hPa) Tendencia (hPa) Humedad (%)
2020-09-24 23:00:00 10.9 7 Oeste 17 Oeste 0 -- -- 90
2020-09-24 22:00:00 11.2 6 Oeste 24 Oeste 0 -- -- 92
2020-09-24 21:00:00 11.7 8 Noroeste 23 Noroeste 1.2 -- -- 90
2020-09-24 20:00:00 12.4 9 Oeste 25 Oeste 0 -- -- 87
2020-09-24 19:00:00 13.9 4 Oeste 35 Norte 1 -- -- 82
2020-09-24 18:00:00 14.2 5 Oeste 21 Oeste 0.6 -- -- 87
2020-09-24 17:00:00 13.2 8 Oeste 32 Oeste 1.2 -- -- 89
2020-09-24 16:00:00 16 15 Oeste 44 Oeste 0 -- -- 70
2020-09-24 15:00:00 14.6 15 Oeste 33 Sudoeste 0 -- -- 78
2020-09-24 14:00:00 13.1 13 Oeste 39 Oeste 0.2 -- -- 88
2020-09-24 13:00:00 14.3 15 Oeste 40 Oeste 0 -- -- 77
2020-09-24 12:00:00 14.6 14 Oeste 32 Oeste 0 -- -- 70
2020-09-24 11:00:00 14 5 Sudoeste 17 Oeste 0 -- -- 81
2020-09-24 10:00:00 13 2 Sudoeste 7 Oeste 0 -- -- 84
2020-09-24 09:00:00 10.8 0 Calma 5 Oeste 0 -- -- 93
2020-09-24 08:00:00 10.7 0 Calma 6 Oeste 0 -- -- 90
2020-09-24 07:00:00 11.3 2 Oeste 10 Sudoeste 0 -- -- 88
2020-09-24 06:00:00 12.3 2 Sudoeste 9 Sudoeste 0 -- -- 89
2020-09-24 05:00:00 13.1 3 Noroeste 10 Oeste 0 -- -- 90
2020-09-24 04:00:00 13.3 4 Oeste 10 Oeste 0 -- -- 89
2020-09-24 03:00:00 13.6 4 Oeste 11 Oeste 0 -- -- 89
2020-09-24 02:00:00 13.5 4 Oeste 12 Oeste 0 -- -- 88
2020-09-24 01:00:00 13.7 5 Oeste 16 Sudoeste 0 -- -- 87
2020-09-24 00:00:00 14.8 4 Sudoeste 9 Oeste 0 -- -- 84
2020-09-23 23:00:00 15 3 Noroeste 15 Oeste 0 -- -- 83
2020-09-23 22:00:00 15.1 5 Oeste 17 Oeste 0 -- -- 81
2020-09-23 21:00:00 15.8 6 Oeste 26 Oeste 0 -- -- 75
2020-09-23 20:00:00 17 10 Oeste 27 Oeste 0 -- -- 68
2020-09-23 19:00:00 18.6 15 Oeste 32 Oeste 0 -- -- 68
2020-09-23 18:00:00 19.4 13 Oeste 32 Oeste 0 -- -- 66
2020-09-23 17:00:00 21 13 Oeste 31 Oeste 0 -- -- 60
2020-09-23 16:00:00 21.3 12 Oeste 28 Oeste 0 -- -- 61
2020-09-23 15:00:00 19.8 14 Oeste 30 Sudoeste 0 -- -- 66
2020-09-23 14:00:00 19.4 10 Oeste 27 Oeste 0 -- -- 70
2020-09-23 13:00:00 18 10 Oeste 24 Oeste 0 -- -- 76
2020-09-23 12:00:00 17.7 9 Oeste 24 Oeste 0 -- -- 77
2020-09-23 11:00:00 16.9 10 Oeste 20 Sudoeste 0 -- -- 83
2020-09-23 10:00:00 15.9 2 Sudoeste 5 Oeste 0 -- -- 93
2020-09-23 09:00:00 15.1 0 Calma 8 Oeste 0 -- -- 95
2020-09-23 08:00:00 15.2 4 Oeste 15 Oeste 0 -- -- 95
2020-09-23 07:00:00 15.3 0 Calma 8 Oeste 0.2 -- -- 96
2020-09-23 06:00:00 15.2 0 Calma 7 Este 0 -- -- 96
2020-09-23 05:00:00 15 2 Sudoeste 14 Sudeste 0 -- -- 95
2020-09-23 04:00:00 15.3 3 Sudoeste 12 Sudeste 0 -- -- 95
2020-09-23 03:00:00 15.3 3 Sur 14 Sur 0.6 -- -- 95
2020-09-23 02:00:00 15.6 3 Sur 13 Sudeste 0.2 -- -- 94
2020-09-23 01:00:00 15.7 5 Sur 17 Sudeste 0.8 -- -- 94
2020-09-23 00:00:00 16 4 Sur 12 Sur 1.4 -- -- 92
2020-09-22 23:00:00 16.4 2 Sur 7 Sudeste 1.8 -- -- 89
2020-09-22 22:00:00 17.3 4 Sur 7 Sur 0 -- -- 82
2020-09-22 21:00:00 17.8 0 Calma 26 Oeste 0 -- -- 77
2020-09-22 20:00:00 20 6 Oeste 14 Oeste 0 -- -- 64
2020-09-22 19:00:00 21.2 5 Oeste 21 Sudoeste 0 -- -- 56
2020-09-22 18:00:00 24.3 8 Oeste 19 Oeste 0 -- -- 46
2020-09-22 17:00:00 23.6 3 Sudoeste 21 Oeste 0 -- -- 48
2020-09-22 16:00:00 24 4 Sudoeste 23 Oeste 0 -- -- 46
2020-09-22 15:00:00 22.2 5 Sudoeste 17 Oeste 0 -- -- 51
2020-09-22 14:00:00 21.2 6 Oeste 15 Oeste 0 -- -- 57
2020-09-22 13:00:00 19.1 5 Sur 13 Sudeste 0 -- -- 65
2020-09-22 12:00:00 18.1 3 Sudeste 10 Sudeste 0 -- -- 72
2020-09-22 11:00:00 16.3 3 Sur 8 Sur 0 -- -- 83
2020-09-22 10:00:00 14.9 0 Calma 7 Oeste 0 -- -- 87
2020-09-22 09:00:00 14.4 4 Oeste 9 Oeste 0 -- -- 88
2020-09-22 08:00:00 14.4 0 Calma 5 Oeste 0 -- -- 89
2020-09-22 07:00:00 14.4 0 Calma 7 Sudoeste 0 -- -- 90
2020-09-22 06:00:00 14.4 2 Sudoeste 6 Oeste 0 -- -- 90
2020-09-22 05:00:00 14.4 0 Calma 3 Oeste 0 -- -- 91
2020-09-22 04:00:00 14.2 0 Calma 3 Sudoeste 0 -- -- 91
2020-09-22 03:00:00 14.2 0 Calma 4 Oeste 0 -- -- 92
2020-09-22 02:00:00 14.4 2 Noroeste 7 Noroeste 0 -- -- 90
2020-09-22 01:00:00 15 3 Noroeste 10 Oeste 0 -- -- 89
2020-09-22 00:00:00 15.4 4 Oeste 12 Noroeste 0 -- -- 88
2020-09-21 23:00:00 16.1 5 Noroeste 11 Oeste 0 -- -- 85
2020-09-21 22:00:00 16.8 5 Noroeste 13 Norte 0 -- -- 82
2020-09-21 21:00:00 18.2 5 Noroeste 17 Noroeste 0 -- -- 71
2020-09-21 20:00:00 20.1 5 Noroeste 15 Noroeste 0 -- -- 53
2020-09-21 19:00:00 23.8 5 Noroeste 14 Sudoeste 0 -- -- 38
2020-09-21 18:00:00 24.3 7 Oeste 17 Oeste 0 -- -- 37
2020-09-21 17:00:00 22.9 6 Oeste 13 Sudoeste 0 -- -- 45
2020-09-21 16:00:00 22.4 5 Oeste 12 Sudoeste 0 -- -- 49
2020-09-21 15:00:00 21 5 Noroeste 11 Sudeste 0 -- -- 58
2020-09-21 14:00:00 19.3 3 Oeste 9 Oeste 0 -- -- 65
2020-09-21 13:00:00 19 2 Sudoeste 8 Sudoeste 0 -- -- 69
2020-09-21 12:00:00 17.3 4 Oeste 12 Oeste 0 -- -- 76
2020-09-21 11:00:00 16.8 4 Noroeste 13 Oeste 0 -- -- 83
2020-09-21 10:00:00 15.8 5 Oeste 9 Noroeste 0 -- -- 86
2020-09-21 09:00:00 15.1 0 Calma 4 Sur 0 -- -- 91
2020-09-21 08:00:00 15.1 0 Calma 4 Sur 0 -- -- 90
2020-09-21 07:00:00 15.3 0 Calma 4 Oeste 0 -- -- 90
2020-09-21 06:00:00 15.5 0 Calma 10 Oeste 0 -- -- 90
2020-09-21 05:00:00 15.3 4 Oeste 11 Sudoeste 0 -- -- 90
2020-09-21 04:00:00 15.4 0 Calma 5 Oeste 0 -- -- 91
2020-09-21 03:00:00 15.3 2 Oeste 10 Sudoeste 0 -- -- 91
2020-09-21 02:00:00 15.3 6 Oeste 16 Oeste 0 -- -- 91
2020-09-21 01:00:00 15.5 5 Oeste 12 Oeste 0 -- -- 93
2020-09-21 00:00:00 15.7 3 Oeste 10 Noroeste 0.6 -- -- 94
2020-09-20 23:00:00 16 4 Noroeste 11 Oeste 0.2 -- -- 92
2020-09-20 22:00:00 16.7 5 Oeste 12 Oeste 0 -- -- 89
2020-09-20 21:00:00 17 5 Oeste 17 Oeste 0 -- -- 87
2020-09-20 20:00:00 17.3 6 Oeste 25 Oeste 0 -- -- 87
2020-09-20 19:00:00 18.8 9 Oeste 18 Oeste 0 -- -- 80
2020-09-20 18:00:00 19.6 6 Oeste 17 Sudoeste 0 -- -- 70
2020-09-20 17:00:00 24.6 6 Oeste 15 Oeste 0 -- -- 55
2020-09-20 16:00:00 22.3 2 Sudoeste 9 Oeste 0 -- -- 61
2020-09-20 15:00:00 23.8 4 Noroeste 10 Noroeste 0 -- -- 57
2020-09-20 14:00:00 20.9 3 Noroeste 8 Este 0 -- -- 70
2020-09-20 13:00:00 17.4 3 Nordeste 6 Nordeste 0 -- -- 89
2020-09-20 12:00:00 16.2 2 Noroeste 8 Noroeste 0.2 -- -- 95
2020-09-20 11:00:00 15.3 0 Calma 3 Oeste 0 -- -- 97
2020-09-20 10:00:00 14.9 0 Calma 5 Noroeste 0 -- -- 97
2020-09-20 09:00:00 14.9 0 Calma 4 Este 0 -- -- 97
2020-09-20 08:00:00 14.8 0 Calma 3 Oeste 0 -- -- 97
2020-09-20 07:00:00 14.8 0 Calma 5 Noroeste 0 -- -- 97
2020-09-20 06:00:00 14.8 0 Calma 5 Oeste 0 -- -- 96
2020-09-20 05:00:00 15 0 Calma 4 Oeste 0 -- -- 96
2020-09-20 04:00:00 15.1 0 Calma 3 Noroeste 0 -- -- 95
2020-09-20 03:00:00 15 0 Calma 4 Norte 0 -- -- 95
2020-09-20 02:00:00 15 0 Calma 5 Noroeste 0 -- -- 94
2020-09-20 01:00:00 15.4 3 Noroeste 6 Noroeste 0 -- -- 94
2020-09-20 00:00:00 16.1 3 Oeste 5 Noroeste 0 -- -- 92
2020-09-19 23:00:00 17 4 Noroeste 6 Norte 0 -- -- 88
2020-09-19 22:00:00 17.5 0 Calma 4 Noroeste 0 -- -- 87
2020-09-19 21:00:00 17.9 0 Calma 6 Sudeste 0 -- -- 82
2020-09-19 20:00:00 18.7 0 Calma 7 Sudeste 0 -- -- 77
2020-09-19 19:00:00 19.8 3 Sur 7 Sudeste 0 -- -- 72
2020-09-19 18:00:00 20 0 Calma 7 Sudoeste 0 -- -- 76
2020-09-19 17:00:00 18.9 2 Sudoeste 16 Oeste 0.4 -- -- 85
2020-09-19 16:00:00 19.8 2 Sudoeste 12 Oeste 0 -- -- 73
2020-09-19 15:00:00 19.6 5 Oeste 19 Sudoeste 0 -- -- 71
2020-09-19 14:00:00 20.3 5 Oeste 17 Oeste 0 -- -- 68
2020-09-19 13:00:00 20.5 3 Sudoeste 12 Oeste 0 -- -- 71
2020-09-19 12:00:00 18 3 Sur 12 Sudeste 0 -- -- 88
2020-09-19 11:00:00 15.5 4 Sudeste 13 Sudeste 0 -- -- 95
2020-09-19 10:00:00 13.7 4 Sudeste 9 Sudeste 0 -- -- 97
2020-09-19 09:00:00 13 5 Sudeste 9 Sudeste 0 -- -- 97
2020-09-19 08:00:00 12.9 5 Sudeste 10 Sudeste 0 -- -- 97
2020-09-19 07:00:00 12.9 0 Calma 7 Oeste 0 -- -- 97
2020-09-19 06:00:00 13.2 2 Noroeste 6 Noroeste 0 -- -- 96
2020-09-19 05:00:00 13.7 3 Noroeste 6 Noroeste 0 -- -- 96
2020-09-19 04:00:00 13.4 2 Noroeste 6 Noroeste 0 -- -- 95
2020-09-19 03:00:00 13.5 0 Calma 7 Noroeste 0 -- -- 94
2020-09-19 02:00:00 14.3 3 Noroeste 6 Oeste 0 -- -- 94
2020-09-19 01:00:00 14.9 4 Noroeste 10 Noroeste 0 -- -- 92
2020-09-19 00:00:00 15.7 4 Noroeste 10 Noroeste 0 -- -- 89
2020-09-18 23:00:00 17 4 Noroeste 11 Norte 0 -- -- 85
2020-09-18 22:00:00 17.8 4 Nordeste 17 Nordeste 0 -- -- 81
2020-09-18 21:00:00 18.4 6 Norte 17 Norte 0 -- -- 78
2020-09-18 20:00:00 19.6 6 Norte 24 Nordeste 0 -- -- 73
2020-09-18 19:00:00 22.3 2 Noroeste 9 Oeste 0 -- -- 51
2020-09-18 18:00:00 24.9 4 Oeste 11 Oeste 0 -- -- 43
2020-09-18 17:00:00 24.6 4 Sudoeste 13 Oeste 0 -- -- 46
2020-09-18 16:00:00 23.4 4 Sudoeste 15 Oeste 0 -- -- 50
2020-09-18 15:00:00 23.3 6 Oeste 16 Oeste 0 -- -- 53
2020-09-18 14:00:00 22.9 4 Sur 12 Sur 0 -- -- 55
2020-09-18 13:00:00 20.5 4 Sudoeste 15 Sudeste 0 -- -- 67
2020-09-18 12:00:00 19.5 4 Sur 10 Sudeste 0 -- -- 79
2020-09-18 11:00:00 18.1 3 Sur 9 Sudeste 0 -- -- 92
2020-09-18 10:00:00 14.9 4 Sudeste 11 Sudeste 0 -- -- 96
2020-09-18 09:00:00 14.8 5 Sudeste 11 Sudeste 0 -- -- 97
2020-09-18 08:00:00 14.8 4 Sudeste 10 Sudeste 0 -- -- 96
2020-09-18 07:00:00 15 0 Calma 10 Sudeste 0 -- -- 96
2020-09-18 06:00:00 15.3 0 Calma 5 Sudeste 0 -- -- 96
2020-09-18 05:00:00 15.4 3 Sudeste 6 Este 0 -- -- 96
2020-09-18 04:00:00 15.3 0 Calma 4 Oeste 0 -- -- 95
2020-09-18 03:00:00 15.2 0 Calma 12 Este 0 -- -- 95
2020-09-18 02:00:00 15.6 7 Este 21 Nordeste 5.4 -- -- 95
2020-09-18 01:00:00 15.7 0 Calma 12 Nordeste 0.4 -- -- 94
2020-09-18 00:00:00 15.9 0 Calma 10 Nordeste 0.6 -- -- 94
2020-09-17 23:00:00 16 2 Noroeste 18 Noroeste 1 -- -- 94
2020-09-17 22:00:00 16.1 5 Noroeste 18 Noroeste 1.2 -- -- 93
2020-09-17 21:00:00 16.9 6 Noroeste 23 Oeste 2.4 -- -- 92
2020-09-17 20:00:00 16.9 10 Oeste 44 Oeste 8.2 -- -- 87
2020-09-17 19:00:00 27.2 10 Sudeste 22 Sudeste 0.2 -- -- 46
2020-09-17 18:00:00 27.7 9 Sudeste 17 Sudeste 0 -- -- 42
2020-09-17 17:00:00 30.4 5 Sudeste 19 Sudeste 0 -- -- 35
2020-09-17 16:00:00 28.2 8 Sudeste 21 Sudeste 0 -- -- 39
2020-09-17 15:00:00 29 8 Sudeste 20 Este 0 -- -- 38
2020-09-17 14:00:00 27.5 9 Sudeste 26 Este 0 -- -- 41
2020-09-17 13:00:00 25.8 10 Sudeste 23 Sur 0 -- -- 45
2020-09-17 12:00:00 22 0 Calma 6 Sudeste 0 -- -- 79
2020-09-17 11:00:00 18.8 0 Calma 7 Noroeste 0 -- -- 92
2020-09-17 10:00:00 17.1 4 Noroeste 8 Noroeste 0 -- -- 95
2020-09-17 09:00:00 17 3 Noroeste 7 Noroeste 0 -- -- 95
2020-09-17 08:00:00 17 3 Noroeste 6 Norte 0 -- -- 95
2020-09-17 07:00:00 17.2 3 Noroeste 10 Noroeste 0 -- -- 94
2020-09-17 06:00:00 17.4 3 Oeste 16 Norte 0 -- -- 93
2020-09-17 05:00:00 17.4 6 Norte 13 Nordeste 0 -- -- 93
2020-09-17 04:00:00 17.4 4 Norte 15 Norte 0.2 -- -- 92
2020-09-17 03:00:00 17.2 3 Oeste 8 Noroeste 0 -- -- 92
2020-09-17 02:00:00 17.2 4 Noroeste 10 Noroeste 0 -- -- 91
2020-09-17 01:00:00 17.3 5 Noroeste 13 Oeste 0 -- -- 90
2020-09-17 00:00:00 17.7 5 Noroeste 12 Noroeste 0 -- -- 86
2020-09-16 23:00:00 19 4 Noroeste 13 Noroeste 0 -- -- 79
2020-09-16 22:00:00 20.2 5 Noroeste 12 Noroeste 0 -- -- 69
2020-09-16 21:00:00 21.7 4 Noroeste 13 Nordeste 0 -- -- 59
2020-09-16 20:00:00 23.4 2 Norte 21 Norte 0 -- -- 50
2020-09-16 19:00:00 24.7 9 Norte 30 Nordeste 0 -- -- 49
2020-09-16 18:00:00 25.9 13 Nordeste 31 Nordeste 0 -- -- 44
2020-09-16 17:00:00 30.1 6 Nordeste 13 Oeste 0 -- -- 33
2020-09-16 16:00:00 30.6 4 Nordeste 15 Este 0 -- -- 30
2020-09-16 15:00:00 28.4 5 Este 12 Sur 0 -- -- 35
2020-09-16 14:00:00 27.6 4 Sudeste 10 Este 0 -- -- 37
2020-09-16 13:00:00 23.2 2 Oeste 6 Oeste 0 -- -- 59
2020-09-16 12:00:00 19.8 2 Norte 6 Nordeste 0 -- -- 75
2020-09-16 11:00:00 15.7 4 Sudeste 6 Sudeste 0 -- -- 91
2020-09-16 10:00:00 13.5 0 Calma 5 Oeste 0 -- -- 95
2020-09-16 09:00:00 12.8 0 Calma 2 Sudeste 0 -- -- 95
2020-09-16 08:00:00 12.4 0 Calma 4 Noroeste 0 -- -- 95
2020-09-16 07:00:00 12.6 0 Calma 4 Noroeste 0 -- -- 94
2020-09-16 06:00:00 13.4 0 Calma 3 Sudeste 0 -- -- 94
2020-09-16 05:00:00 13.2 0 Calma 4 Sudeste 0 -- -- 92
2020-09-16 04:00:00 13.6 0 Calma 4 Oeste 0 -- -- 92
2020-09-16 03:00:00 14.3 0 Calma 3 Oeste 0 -- -- 91
2020-09-16 02:00:00 15.1 0 Calma 4 Noroeste 0 -- -- 89
2020-09-16 01:00:00 16 0 Calma 4 Oeste 0 -- -- 87
2020-09-16 00:00:00 17 0 Calma 4 Noroeste 0 -- -- 84
2020-09-15 23:00:00 17.9 0 Calma 10 Oeste 0 -- -- 80
2020-09-15 22:00:00 19 4 Norte 13 Noroeste 0 -- -- 75
2020-09-15 21:00:00 20.7 5 Norte 20 Norte 0 -- -- 72
2020-09-15 20:00:00 23.6 6 Norte 15 Norte 0 -- -- 62
2020-09-15 19:00:00 24.7 4 Noroeste 10 Noroeste 0 -- -- 53
2020-09-15 18:00:00 26.8 5 Oeste 17 Oeste 0 -- -- 48
2020-09-15 17:00:00 27.3 8 Oeste 18 Oeste 0 -- -- 47
2020-09-15 16:00:00 26 7 Oeste 24 Oeste 0 -- -- 47
2020-09-15 15:00:00 25.3 8 Sudoeste 21 Oeste 0 -- -- 49
2020-09-15 14:00:00 24.6 6 Sudoeste 24 Oeste 0 -- -- 50
2020-09-15 13:00:00 24.1 4 Sudoeste 17 Oeste 0 -- -- 53
2020-09-15 12:00:00 21.2 2 Sudoeste 12 Sudeste 0 -- -- 73
2020-09-15 11:00:00 17.5 6 Sudeste 12 Este 0 -- -- 90
2020-09-15 10:00:00 15.4 3 Sur 9 Sudeste 0 -- -- 95
2020-09-15 09:00:00 15 5 Sudeste 10 Sudeste 0 -- -- 96
2020-09-15 08:00:00 15 0 Calma 5 Noroeste 0 -- -- 95
2020-09-15 07:00:00 15.8 0 Calma 4 Sudeste 0 -- -- 95
2020-09-15 06:00:00 16 0 Calma 6 Sudeste 0 -- -- 95
2020-09-15 05:00:00 16.3 3 Sur 6 Sudeste 0 -- -- 95
2020-09-15 04:00:00 16.5 2 Oeste 6 Oeste 0 -- -- 95
2020-09-15 03:00:00 17.3 0 Calma 5 Oeste 0 -- -- 93
2020-09-15 02:00:00 17.5 3 Noroeste 9 Noroeste 0 -- -- 93
2020-09-15 01:00:00 17.7 3 Noroeste 13 Oeste 0 -- -- 92
2020-09-15 00:00:00 18 5 Oeste 13 Oeste 0 -- -- 90
2020-09-14 23:00:00 18.9 4 Noroeste 9 Noroeste 0 -- -- 85
2020-09-14 22:00:00 20.4 4 Noroeste 11 Norte 0 -- -- 78
2020-09-14 21:00:00 21.7 5 Noroeste 17 Noroeste 0 -- -- 72
2020-09-14 20:00:00 23 7 Oeste 17 Noroeste 0 -- -- 65
2020-09-14 19:00:00 24.2 10 Oeste 20 Oeste 0 -- -- 62
2020-09-14 18:00:00 25 8 Oeste 22 Oeste 0 -- -- 60
2020-09-14 17:00:00 27 9 Oeste 21 Noroeste 0 -- -- 54
2020-09-14 16:00:00 27 5 Oeste 16 Oeste 0 -- -- 54
2020-09-14 15:00:00 26.3 7 Oeste 19 Noroeste 0 -- -- 55
2020-09-14 14:00:00 25.1 0 Calma 10 Sudeste 0 -- -- 57
2020-09-14 13:00:00 22.9 2 Sudeste 4 Este 0 -- -- 61
2020-09-14 12:00:00 19.4 0 Calma 3 Oeste 0 -- -- 74
2020-09-14 11:00:00 18.2 0 Calma 5 Noroeste 0 -- -- 82
2020-09-14 10:00:00 17 0 Calma 6 Sudeste 0 -- -- 81
2020-09-14 09:00:00 16.3 2 Sudeste 12 Este 0 -- -- 82
2020-09-14 08:00:00 16.6 0 Calma 15 Sudeste 0 -- -- 80
2020-09-14 07:00:00 16.3 3 Sudeste 8 Sudeste 0 -- -- 83
2020-09-14 06:00:00 16.1 0 Calma 7 Sudeste 0 -- -- 84
2020-09-14 05:00:00 16.5 3 Sudeste 10 Sudeste 0 -- -- 82
2020-09-14 04:00:00 16.5 5 Sudeste 9 Sudeste 0 -- -- 83
2020-09-14 03:00:00 17.4 2 Sudeste 6 Oeste 0 -- -- 78
2020-09-14 02:00:00 17.1 3 Noroeste 9 Oeste 0 -- -- 76
2020-09-14 01:00:00 18.5 0 Calma 4 Noroeste 0 -- -- 73
2020-09-14 00:00:00 19.9 0 Calma 3 Oeste 0 -- -- 69
2020-09-13 23:00:00 21.6 0 Calma 6 Este 0 -- -- 63
2020-09-13 22:00:00 23.8 4 Sudeste 10 Sudeste 0 -- -- 56
2020-09-13 21:00:00 25.5 4 Noroeste 13 Oeste 0 -- -- 48
2020-09-13 20:00:00 27.8 6 Noroeste 20 Oeste 0 -- -- 42
2020-09-13 19:00:00 32.1 0 Calma 11 Sudeste 0 -- -- 31
2020-09-13 18:00:00 36.5 5 Sudeste 10 Sudeste 0 -- -- 23
2020-09-13 17:00:00 34.9 4 Oeste 15 Oeste 0 -- -- 24
2020-09-13 16:00:00 33.6 3 Sur 10 Sur 0 -- -- 28
2020-09-13 15:00:00 33.4 2 Sudeste 9 Sudeste 0 -- -- 31
2020-09-13 14:00:00 31.3 2 Sur 9 Sudeste 0 -- -- 36
2020-09-13 13:00:00 26.7 3 Sudeste 7 Este 0 -- -- 53
2020-09-13 12:00:00 21.7 3 Este 7 Sudeste 0 -- -- 72
2020-09-13 11:00:00 16.7 3 Este 6 Este 0 -- -- 94
2020-09-13 10:00:00 15.2 2 Sudeste 6 Este 0 -- -- 96
2020-09-13 09:00:00 14.6 0 Calma 5 Sudeste 0 -- -- 96
2020-09-13 08:00:00 14.9 0 Calma 5 Este 0 -- -- 96
2020-09-13 07:00:00 15.2 0 Calma 4 Sur 0 -- -- 96
2020-09-13 06:00:00 15.9 0 Calma 4 Sudeste 0 -- -- 96
2020-09-13 05:00:00 16.2 0 Calma 4 Sur 0 -- -- 95
2020-09-13 04:00:00 16.4 0 Calma 4 Oeste 0 -- -- 95
2020-09-13 03:00:00 16.5 3 Oeste 6 Oeste 0 -- -- 94
2020-09-13 02:00:00 16.8 4 Noroeste 11 Noroeste 0 -- -- 94
2020-09-13 01:00:00 17.1 5 Noroeste 12 Noroeste 0 -- -- 93
2020-09-13 00:00:00 17.3 4 Noroeste 11 Oeste 0 -- -- 92
2020-09-12 23:00:00 17.6 5 Noroeste 13 Noroeste 0 -- -- 90
2020-09-12 22:00:00 18.5 5 Noroeste 15 Noroeste 0 -- -- 86
2020-09-12 21:00:00 20.1 6 Noroeste 15 Norte 0 -- -- 81
2020-09-12 20:00:00 22.5 7 Norte 20 Norte 0 -- -- 72
2020-09-12 19:00:00 26.2 7 Norte 20 Noroeste 0 -- -- 59
2020-09-12 18:00:00 28.5 9 Norte 21 Norte 0 -- -- 54
2020-09-12 17:00:00 29.6 10 Norte 22 Norte 0 -- -- 50
2020-09-12 16:00:00 30.5 6 Norte 15 Norte 0 -- -- 46
2020-09-12 15:00:00 29.2 6 Norte 16 Norte 0 -- -- 48
2020-09-12 14:00:00 27.5 5 Noroeste 12 Nordeste 0 -- -- 53
2020-09-12 13:00:00 24.9 4 Nordeste 9 Nordeste 0 -- -- 59
2020-09-12 12:00:00 20.3 2 Oeste 5 Oeste 0 -- -- 77
2020-09-12 11:00:00 17.1 0 Calma 6 Norte 0 -- -- 92
2020-09-12 10:00:00 15.2 0 Calma 4 Nordeste 0 -- -- 94
2020-09-12 09:00:00 13.9 0 Calma 7 Sudeste 0 -- -- 96
2020-09-12 08:00:00 13.2 3 Sudeste 7 Sudeste 0 -- -- 95
2020-09-12 07:00:00 13.6 3 Sudeste 5 Sudeste 0 -- -- 92
2020-09-12 06:00:00 15.6 0 Calma 9 Norte 0 -- -- 89
2020-09-12 05:00:00 17 4 Nordeste 9 Norte 0 -- -- 89
2020-09-12 04:00:00 17.5 4 Norte 18 Norte 0 -- -- 88
2020-09-12 03:00:00 18 6 Nordeste 17 Norte 0 -- -- 88
2020-09-12 02:00:00 18 5 Norte 18 Norte 0 -- -- 89
2020-09-12 01:00:00 18.1 3 Norte 14 Norte 0 -- -- 89
2020-09-12 00:00:00 18 6 Noroeste 15 Norte 0 -- -- 89
2020-09-11 23:00:00 18.1 5 Noroeste 18 Noroeste 0 -- -- 88
2020-09-11 22:00:00 18.3 6 Norte 18 Noroeste 0 -- -- 87
2020-09-11 21:00:00 19.1 7 Noroeste 20 Norte 0 -- -- 84
2020-09-11 20:00:00 21.9 7 Norte 24 Norte 0 -- -- 72
2020-09-11 19:00:00 27.1 7 Norte 23 Nordeste 0 -- -- 54
2020-09-11 18:00:00 29.6 9 Nordeste 19 Este 0 -- -- 44
2020-09-11 17:00:00 30.8 9 Nordeste 17 Norte 0 -- -- 36
2020-09-11 16:00:00 30.8 6 Norte 13 Norte 0 -- -- 34
2020-09-11 15:00:00 29.7 5 Nordeste 10 Nordeste 0 -- -- 40
2020-09-11 14:00:00 26.1 5 Nordeste 10 Nordeste 0 -- -- 51
2020-09-11 13:00:00 22.3 2 Nordeste 6 Noroeste 0 -- -- 65
2020-09-11 12:00:00 17.5 4 Este 8 Nordeste 0 -- -- 85
2020-09-11 11:00:00 15.1 0 Calma 6 Nordeste 0 -- -- 93
2020-09-11 10:00:00 14.3 2 Sudeste 7 Sudeste 0 -- -- 94
2020-09-11 09:00:00 14.3 2 Este 6 Sudeste 0 -- -- 94
2020-09-11 08:00:00 14.3 3 Sudeste 6 Este 0 -- -- 94
2020-09-11 07:00:00 14.7 4 Sudeste 6 Sudeste 0 -- -- 92
2020-09-11 06:00:00 15.2 3 Sudeste 9 Nordeste 0 -- -- 91
2020-09-11 05:00:00 15.9 3 Nordeste 9 Nordeste 0 -- -- 89
2020-09-11 04:00:00 16.1 4 Norte 12 Norte 0 -- -- 90
2020-09-11 03:00:00 16.4 5 Norte 13 Nordeste 0 -- -- 89
2020-09-11 02:00:00 16.6 4 Norte 14 Nordeste 0 -- -- 89
2020-09-11 01:00:00 16.8 6 Norte 16 Nordeste 0 -- -- 89
2020-09-11 00:00:00 17 5 Norte 18 Noroeste 0 -- -- 90
2020-09-10 23:00:00 16.9 5 Noroeste 14 Noroeste 0 -- -- 89
2020-09-10 22:00:00 17.6 6 Noroeste 13 Noroeste 0 -- -- 85
2020-09-10 21:00:00 19.3 5 Noroeste 19 Norte 0 -- -- 78
2020-09-10 20:00:00 21.9 7 Norte 22 Norte 0 -- -- 68
2020-09-10 19:00:00 25.1 10 Norte 24 Norte 0 -- -- 56
2020-09-10 18:00:00 27.4 11 Norte 22 Norte 0 -- -- 48
2020-09-10 17:00:00 28 11 Norte 22 Norte 0 -- -- 46
2020-09-10 16:00:00 28.1 10 Norte 18 Norte 0 -- -- 48
2020-09-10 15:00:00 27.9 7 Norte 17 Nordeste 0 -- -- 48
2020-09-10 14:00:00 24.2 4 Noroeste 9 Oeste 0 -- -- 61
2020-09-10 13:00:00 19.9 3 Sudeste 9 Este 0 -- -- 75
2020-09-10 12:00:00 15.4 2 Noroeste 6 Noroeste 0 -- -- 90
2020-09-10 11:00:00 13.8 3 Oeste 5 Noroeste 0 -- -- 94
2020-09-10 10:00:00 13 0 Calma 4 Oeste 0 -- -- 96
2020-09-10 09:00:00 12.7 0 Calma 5 Sudeste 0 -- -- 96
2020-09-10 08:00:00 12.5 0 Calma 4 Sudeste 0 -- -- 96
2020-09-10 07:00:00 12 0 Calma 3 Sudeste 0 -- -- 96
2020-09-10 06:00:00 12.4 0 Calma 4 Oeste 0 -- -- 95
2020-09-10 05:00:00 13.1 2 Oeste 8 Noroeste 0 -- -- 95
2020-09-10 04:00:00 13.6 3 Noroeste 8 Noroeste 0 -- -- 94
2020-09-10 03:00:00 14.1 4 Oeste 9 Noroeste 0 -- -- 93
2020-09-10 02:00:00 14.6 3 Noroeste 11 Oeste 0 -- -- 92
2020-09-10 01:00:00 15.6 4 Noroeste 13 Noroeste 0 -- -- 89
2020-09-10 00:00:00 16.6 5 Norte 17 Norte 0 -- -- 87
2020-09-09 23:00:00 17.5 6 Norte 21 Norte 0 -- -- 85
2020-09-09 22:00:00 18 8 Norte 23 Norte 0 -- -- 84
2020-09-09 21:00:00 18.6 7 Norte 26 Norte 0 -- -- 83
2020-09-09 20:00:00 21.1 10 Norte 23 Norte 0 -- -- 73
2020-09-09 19:00:00 24.7 12 Norte 26 Nordeste 0 -- -- 60
2020-09-09 18:00:00 27 11 Norte 24 Norte 0 -- -- 51
2020-09-09 17:00:00 27.9 9 Norte 22 Norte 0 -- -- 47
2020-09-09 16:00:00 28 8 Norte 19 Norte 0 -- -- 41
2020-09-09 15:00:00 27.6 7 Noroeste 17 Norte 0 -- -- 45
2020-09-09 14:00:00 25.2 5 Norte 14 Norte 0 -- -- 50
2020-09-09 13:00:00 20.3 4 Oeste 9 Noroeste 0 -- -- 68
2020-09-09 12:00:00 15.6 4 Este 9 Sudeste 0 -- -- 87
2020-09-09 11:00:00 13.5 0 Calma 8 Sudeste 0 -- -- 94
2020-09-09 10:00:00 12.3 2 Sur 8 Sudeste 0 -- -- 95
2020-09-09 09:00:00 11.5 0 Calma 3 Sur 0 -- -- 95
2020-09-09 08:00:00 10.7 0 Calma 4 Noroeste 0 -- -- 94
2020-09-09 07:00:00 10.6 2 Noroeste 6 Noroeste 0 -- -- 95
2020-09-09 06:00:00 10.8 0 Calma 3 Noroeste 0 -- -- 94
2020-09-09 05:00:00 11.3 0 Calma 6 Noroeste 0 -- -- 93
2020-09-09 04:00:00 12.1 0 Calma 5 Noroeste 0 -- -- 93
2020-09-09 03:00:00 12.7 3 Noroeste 9 Noroeste 0 -- -- 92
2020-09-09 02:00:00 13.5 5 Noroeste 12 Noroeste 0 -- -- 91
2020-09-09 01:00:00 14 4 Noroeste 12 Oeste 0 -- -- 90
2020-09-09 00:00:00 14.7 5 Noroeste 10 Oeste 0 -- -- 87
2020-09-08 23:00:00 15.8 4 Noroeste 14 Noroeste 0 -- -- 82
2020-09-08 22:00:00 17.1 6 Noroeste 15 Norte 0 -- -- 77
2020-09-08 21:00:00 18.8 6 Norte 22 Norte 0 -- -- 70
2020-09-08 20:00:00 21.1 12 Norte 25 Noroeste 0 -- -- 62
2020-09-08 19:00:00 24.5 10 Nordeste 24 Norte 0 -- -- 54
2020-09-08 18:00:00 25.7 10 Nordeste 21 Nordeste 0 -- -- 50
2020-09-08 17:00:00 26.2 11 Norte 24 Norte 0 -- -- 46
2020-09-08 16:00:00 26.8 8 Norte 19 Nordeste 0 -- -- 40
2020-09-08 15:00:00 25.5 8 Norte 17 Norte 0 -- -- 40
2020-09-08 14:00:00 24 7 Nordeste 15 Este 0 -- -- 43
2020-09-08 13:00:00 22.4 3 Nordeste 10 Nordeste 0 -- -- 47
2020-09-08 12:00:00 18.4 3 Noroeste 8 Noroeste 0 -- -- 66
2020-09-08 11:00:00 15.9 3 Sur 8 Este 0 -- -- 73
2020-09-08 10:00:00 12.8 2 Noroeste 5 Noroeste 0 -- -- 87
2020-09-08 09:00:00 9.2 0 Calma 5 Sudeste 0 -- -- 94
2020-09-08 08:00:00 9.6 0 Calma 6 Noroeste 0 -- -- 94
2020-09-08 07:00:00 10.3 3 Noroeste 6 Noroeste 0 -- -- 94
2020-09-08 06:00:00 11.2 2 Noroeste 10 Norte 0 -- -- 92
2020-09-08 05:00:00 11.7 3 Noroeste 10 Noroeste 0 -- -- 92
2020-09-08 04:00:00 12 5 Noroeste 10 Noroeste 0 -- -- 92
2020-09-08 03:00:00 12.8 3 Norte 13 Norte 0 -- -- 89
2020-09-08 02:00:00 13.5 7 Norte 17 Norte 0 -- -- 87
2020-09-08 01:00:00 14 6 Norte 18 Nordeste 0 -- -- 86
2020-09-08 00:00:00 14.5 10 Nordeste 21 Nordeste 0 -- -- 85
2020-09-07 23:00:00 14.9 4 Noroeste 18 Norte 0 -- -- 84
2020-09-07 22:00:00 15.6 7 Norte 22 Norte 0 -- -- 81
2020-09-07 21:00:00 16.9 8 Norte 27 Norte 0 -- -- 76
2020-09-07 20:00:00 18.5 8 Norte 32 Nordeste 0 -- -- 70
2020-09-07 19:00:00 21.3 13 Norte 32 Norte 0 -- -- 61
2020-09-07 18:00:00 23.5 11 Norte 27 Nordeste 0 -- -- 54
2020-09-07 17:00:00 23.9 11 Norte 27 Norte 0 -- -- 52
2020-09-07 16:00:00 23.4 14 Nordeste 38 Nordeste 0 -- -- 49
2020-09-07 15:00:00 24.3 11 Nordeste 26 Nordeste 0 -- -- 43
2020-09-07 14:00:00 22.5 10 Nordeste 25 Norte 0 -- -- 44
2020-09-07 13:00:00 21 13 Nordeste 26 Este 0 -- -- 47
2020-09-07 12:00:00 19.4 8 Nordeste 27 Este 0 -- -- 56
2020-09-07 11:00:00 17.3 10 Nordeste 23 Nordeste 0 -- -- 65
2020-09-07 10:00:00 15.2 8 Nordeste 19 Nordeste 0 -- -- 75
2020-09-07 09:00:00 12.8 4 Norte 14 Norte 0 -- -- 88
2020-09-07 08:00:00 12.2 8 Norte 20 Nordeste 0 -- -- 89
2020-09-07 07:00:00 12.5 7 Norte 20 Norte 0 -- -- 89
2020-09-07 06:00:00 12.8 10 Nordeste 21 Nordeste 0 -- -- 88
2020-09-07 05:00:00 12.8 8 Norte 14 Norte 0 -- -- 88
2020-09-07 04:00:00 13 6 Norte 19 Norte 0 -- -- 88
2020-09-07 03:00:00 13.2 6 Norte 17 Norte 0 -- -- 86
2020-09-07 02:00:00 13.2 5 Nordeste 19 Nordeste 0 -- -- 86
2020-09-07 01:00:00 13.5 8 Norte 21 Nordeste 0 -- -- 84
2020-09-07 00:00:00 13.7 9 Norte 20 Nordeste 0 -- -- 84
2020-09-06 23:00:00 13.8 7 Norte 21 Norte 0 -- -- 84
2020-09-06 22:00:00 14.5 5 Norte 17 Nordeste 0 -- -- 81
2020-09-06 21:00:00 15.6 7 Nordeste 25 Norte 0 -- -- 76
2020-09-06 20:00:00 17 10 Nordeste 34 Nordeste 0 -- -- 72
2020-09-06 19:00:00 19.2 16 Nordeste 35 Nordeste 0 -- -- 63
2020-09-06 18:00:00 20.2 15 Nordeste 34 Nordeste 0 -- -- 60
2020-09-06 17:00:00 20.4 14 Nordeste 32 Nordeste 0 -- -- 59
2020-09-06 16:00:00 20.5 15 Norte 32 Nordeste 0 -- -- 59
2020-09-06 15:00:00 21.1 13 Nordeste 28 Norte 0 -- -- 57
2020-09-06 14:00:00 20.3 10 Norte 29 Nordeste 0 -- -- 61
2020-09-06 13:00:00 19.1 13 Nordeste 32 Nordeste 0 -- -- 62
2020-09-06 12:00:00 17.3 13 Nordeste 28 Norte 0 -- -- 70
2020-09-06 11:00:00 16.4 12 Nordeste 24 Norte 0 -- -- 73
2020-09-06 10:00:00 16.1 9 Nordeste 26 Nordeste 0 -- -- 76
2020-09-06 09:00:00 14.5 8 Nordeste 23 Nordeste 0 -- -- 83
2020-09-06 08:00:00 14.3 8 Nordeste 21 Norte 0 -- -- 86
2020-09-06 07:00:00 14.6 8 Norte 20 Nordeste 0 -- -- 87
2020-09-06 06:00:00 14.8 7 Norte 19 Este 0 -- -- 87
2020-09-06 05:00:00 15 6 Norte 22 Norte 0 -- -- 86
2020-09-06 04:00:00 14.9 8 Nordeste 23 Nordeste 0 -- -- 87
2020-09-06 03:00:00 15.1 9 Norte 23 Norte 0 -- -- 88
2020-09-06 02:00:00 15.6 7 Norte 20 Oeste 0 -- -- 86
2020-09-06 01:00:00 15.6 8 Norte 26 Nordeste 0 -- -- 86
2020-09-06 00:00:00 15.9 9 Nordeste 24 Norte 0 -- -- 86
2020-09-05 23:00:00 16.2 9 Norte 22 Nordeste 0 -- -- 86
2020-09-05 22:00:00 16.2 10 Norte 27 Norte 0 -- -- 86
2020-09-05 21:00:00 16.7 12 Norte 30 Nordeste 0 -- -- 84
2020-09-05 20:00:00 17.7 8 Norte 29 Nordeste 0 -- -- 81
2020-09-05 19:00:00 19.1 11 Norte 29 Norte 0 -- -- 76
2020-09-05 18:00:00 21.2 13 Nordeste 33 Nordeste 0 -- -- 68
2020-09-05 17:00:00 21.2 14 Norte 31 Norte 0 -- -- 68
2020-09-05 16:00:00 21.1 14 Nordeste 35 Nordeste 0 -- -- 69
2020-09-05 15:00:00 21.4 14 Norte 36 Este 0 -- -- 66
2020-09-05 14:00:00 21.1 14 Nordeste 33 Nordeste 0 -- -- 68
2020-09-05 13:00:00 20 15 Nordeste 31 Norte 0 -- -- 72
2020-09-05 12:00:00 19.2 14 Nordeste 28 Norte 0 -- -- 76
2020-09-05 11:00:00 18 10 Nordeste 22 Nordeste 0 -- -- 82
2020-09-05 10:00:00 17.1 8 Nordeste 19 Nordeste 0 -- -- 86
2020-09-05 09:00:00 16.8 8 Norte 26 Nordeste 0 -- -- 88
2020-09-05 08:00:00 16.9 6 Nordeste 23 Nordeste 0 -- -- 89
2020-09-05 07:00:00 17.2 8 Nordeste 23 Nordeste 0 -- -- 88
2020-09-05 06:00:00 17.5 9 Nordeste 22 Norte 0 -- -- 87
2020-09-05 05:00:00 17.5 5 Norte 18 Nordeste 0 -- -- 86
2020-09-05 04:00:00 17.7 7 Nordeste 25 Nordeste 0 -- -- 85
2020-09-05 03:00:00 17.7 10 Norte 21 Norte 0 -- -- 84
2020-09-05 02:00:00 18.1 7 Norte 19 Norte 0 -- -- 85
2020-09-05 01:00:00 18.8 9 Norte 21 Norte 0 -- -- 84
2020-09-05 00:00:00 19.3 6 Norte 20 Nordeste 0 -- -- 86
2020-09-04 23:00:00 19.6 9 Norte 20 Norte 0 -- -- 86
2020-09-04 22:00:00 21.4 5 Noroeste 15 Noroeste 0 -- -- 65
2020-09-04 21:00:00 24.5 6 Noroeste 17 Nordeste 0 -- -- 41
2020-09-04 20:00:00 26.5 8 Noroeste 24 Noroeste 0 -- -- 46
2020-09-04 19:00:00 31.9 9 Oeste 22 Oeste 0 -- -- 29
2020-09-04 18:00:00 32.6 10 Oeste 22 Oeste 0 -- -- 29
2020-09-04 17:00:00 33.5 9 Oeste 26 Sudoeste 0 -- -- 27
2020-09-04 16:00:00 33.6 8 Oeste 23 Oeste 0 -- -- 27
2020-09-04 15:00:00 33.6 3 Sudeste 18 Oeste 0 -- -- 28
2020-09-04 14:00:00 31.1 6 Oeste 21 Oeste 0 -- -- 30
2020-09-04 13:00:00 28.3 5 Sudeste 15 Sudeste 0 -- -- 44
2020-09-04 12:00:00 24.6 6 Sudeste 12 Sudeste 0 -- -- 58
2020-09-04 11:00:00 21.1 8 Sudeste 14 Sudeste 0 -- -- 70
2020-09-04 10:00:00 17.8 6 Sudeste 15 Sudeste 0 -- -- 83
2020-09-04 09:00:00 15.2 4 Sudeste 10 Sudeste 0 -- -- 93
2020-09-04 08:00:00 13.6 5 Sudeste 10 Sudeste 0 -- -- 95
2020-09-04 07:00:00 13.9 0 Calma 0 Calma 0 -- -- 94
2020-09-04 06:00:00 14.3 0 Calma 0 Calma 0 -- -- 94
2020-09-04 05:00:00 14.7 0 Calma 2 Sur 0 -- -- 92
2020-09-04 04:00:00 15.3 0 Calma 2 Oeste 0 -- -- 91
2020-09-04 03:00:00 16.1 0 Calma 4 Noroeste 0 -- -- 90
2020-09-04 02:00:00 17.1 2 Noroeste 6 Noroeste 0 -- -- 90
2020-09-04 01:00:00 18 4 Noroeste 9 Noroeste 0 -- -- 87
2020-09-04 00:00:00 19 4 Noroeste 10 Noroeste 0 -- -- 84
2020-09-03 23:00:00 20.6 5 Noroeste 10 Noroeste 0 -- -- 80
2020-09-03 22:00:00 23.4 4 Norte 15 Norte 0 -- -- 69
2020-09-03 21:00:00 26.3 5 Norte 17 Noroeste 0 -- -- 56
2020-09-03 20:00:00 28.7 5 Noroeste 16 Noroeste 0 -- -- 33
2020-09-03 19:00:00 33.5 3 Norte 14 Noroeste 0 -- -- 23
2020-09-03 18:00:00 33.7 2 Nordeste 16 Noroeste 0 -- -- 25
2020-09-03 17:00:00 34 3 Oeste 15 Oeste 0 -- -- 24
2020-09-03 16:00:00 31.9 6 Oeste 15 Oeste 0 -- -- 27
2020-09-03 15:00:00 31.4 3 Sur 7 Este 0 -- -- 34
2020-09-03 14:00:00 27.7 3 Sudeste 9 Sudeste 0 -- -- 49
2020-09-03 13:00:00 23.3 2 Sur 5 Sudeste 0 -- -- 63
2020-09-03 12:00:00 19.1 2 Sudeste 8 Sudeste 0 -- -- 82
2020-09-03 11:00:00 15.3 4 Sudeste 8 Sudeste 0 -- -- 94
2020-09-03 10:00:00 14.2 3 Sudeste 8 Sudeste 0 -- -- 96
2020-09-03 09:00:00 13.8 4 Sudeste 10 Sudeste 0 -- -- 96
2020-09-03 08:00:00 13.8 2 Sudeste 8 Este 0 -- -- 96
2020-09-03 07:00:00 13.8 0 Calma 4 Sudeste 0 -- -- 95
2020-09-03 06:00:00 13.9 3 Sudeste 8 Sudeste 0 -- -- 94
2020-09-03 05:00:00 14.6 2 Sudeste 6 Sudeste 0 -- -- 94
2020-09-03 04:00:00 15 0 Calma 8 Nordeste 0 -- -- 93
2020-09-03 03:00:00 15.3 2 Noroeste 10 Noroeste 0 -- -- 93
2020-09-03 02:00:00 15.3 3 Norte 13 Norte 0 -- -- 93
2020-09-03 01:00:00 15 5 Noroeste 12 Oeste 0 -- -- 93
2020-09-03 00:00:00 15.1 5 Noroeste 11 Noroeste 0 -- -- 91
2020-09-02 23:00:00 16 4 Noroeste 13 Noroeste 0 -- -- 88
2020-09-02 22:00:00 17.4 5 Noroeste 19 Norte 0 -- -- 83
2020-09-02 21:00:00 19.4 8 Norte 23 Norte 0 -- -- 75
2020-09-02 20:00:00 22 12 Nordeste 21 Nordeste 0 -- -- 63
2020-09-02 19:00:00 25.6 10 Nordeste 20 Norte 0 -- -- 55
2020-09-02 18:00:00 27.4 6 Nordeste 17 Norte 0 -- -- 44
2020-09-02 17:00:00 27.5 4 Norte 18 Norte 0 -- -- 40
2020-09-02 16:00:00 26.5 6 Norte 15 Norte 0 -- -- 46
2020-09-02 15:00:00 25.7 5 Sudeste 10 Sudeste 0 -- -- 46
2020-09-02 14:00:00 23.1 4 Norte 10 Nordeste 0 -- -- 52
2020-09-02 13:00:00 21 5 Este 12 Noroeste 0 -- -- 60
2020-09-02 12:00:00 19.6 4 Este 10 Sudeste 0 -- -- 62
2020-09-02 11:00:00 18.3 2 Sur 7 Este 0 -- -- 67
2020-09-02 10:00:00 16.9 0 Calma 6 Sudeste 0 -- -- 74
2020-09-02 09:00:00 13.9 0 Calma 4 Norte 0 -- -- 90
2020-09-02 08:00:00 12 2 Norte 7 Nordeste 0 -- -- 93
2020-09-02 07:00:00 11.9 3 Noroeste 9 Norte 0 -- -- 92
2020-09-02 06:00:00 12.1 3 Noroeste 12 Norte 0 -- -- 92
2020-09-02 05:00:00 12 3 Noroeste 10 Noroeste 0 -- -- 92
2020-09-02 04:00:00 12.3 3 Norte 8 Noroeste 0 -- -- 91
2020-09-02 03:00:00 12.7 3 Noroeste 13 Noroeste 0 -- -- 90
2020-09-02 02:00:00 12.8 3 Noroeste 15 Noroeste 0 -- -- 90
2020-09-02 01:00:00 13.7 4 Norte 17 Norte 0 -- -- 87
2020-09-02 00:00:00 14.3 4 Norte 19 Nordeste 0 -- -- 85
2020-09-01 23:00:00 14.9 7 Nordeste 23 Norte 0 -- -- 82
2020-09-01 22:00:00 15.6 9 Norte 23 Norte 0 -- -- 79
2020-09-01 21:00:00 17 11 Norte 29 Nordeste 0 -- -- 69
2020-09-01 20:00:00 18.6 13 Nordeste 36 Nordeste 0 -- -- 63
2020-09-01 19:00:00 20.7 13 Nordeste 32 Nordeste 0 -- -- 57
2020-09-01 18:00:00 22.2 14 Norte 27 Norte 0 -- -- 55
2020-09-01 17:00:00 23.3 12 Norte 29 Norte 0 -- -- 49
2020-09-01 16:00:00 24.2 9 Norte 24 Nordeste 0 -- -- 44
2020-09-01 15:00:00 23.5 9 Norte 20 Norte 0 -- -- 39
2020-09-01 14:00:00 22.3 8 Norte 18 Nordeste 0 -- -- 45
2020-09-01 13:00:00 20.8 8 Norte 17 Nordeste 0 -- -- 57
2020-09-01 12:00:00 19.4 7 Nordeste 20 Norte 0 -- -- 66
2020-09-01 11:00:00 18.1 5 Norte 12 Norte 0 -- -- 70
2020-09-01 10:00:00 15 3 Noroeste 9 Noroeste 0 -- -- 82
2020-09-01 09:00:00 12.3 3 Noroeste 10 Noroeste 0 -- -- 90
2020-09-01 08:00:00 11.6 3 Noroeste 8 Oeste 0 -- -- 91
2020-09-01 07:00:00 12.2 0 Calma 8 Noroeste 0 -- -- 90
2020-09-01 06:00:00 12 2 Noroeste 6 Noroeste 0 -- -- 89
2020-09-01 05:00:00 12.3 2 Noroeste 6 Oeste 0 -- -- 88
2020-09-01 04:00:00 12.8 3 Noroeste 6 Noroeste 0 -- -- 87
2020-09-01 03:00:00 13.2 3 Noroeste 5 Oeste 0 -- -- 84
2020-09-01 02:00:00 13.8 0 Calma 9 Noroeste 0 -- -- 82
2020-09-01 01:00:00 14.5 0 Calma 8 Oeste 0 -- -- 78
2020-09-01 00:00:00 15.4 4 Noroeste 9 Noroeste 0 -- -- 74
2020-08-31 23:00:00 16.8 3 Noroeste 6 Noroeste 0 -- -- 67
2020-08-31 22:00:00 18.4 4 Noroeste 10 Noroeste 0 -- -- 56
2020-08-31 21:00:00 19.4 3 Noroeste 10 Noroeste 0 -- -- 57
2020-08-31 20:00:00 21.4 4 Oeste 14 Oeste 0 -- -- 46
2020-08-31 19:00:00 22.5 10 Oeste 19 Oeste 0 -- -- 43
2020-08-31 18:00:00 24.6 6 Oeste 20 Oeste 0 -- -- 38
2020-08-31 17:00:00 25.8 7 Oeste 18 Noroeste 0 -- -- 36
2020-08-31 16:00:00 23.9 8 Oeste 24 Oeste 0 -- -- 35
2020-08-31 15:00:00 23.8 12 Oeste 31 Oeste 0 -- -- 37
2020-08-31 14:00:00 23.6 3 Sudoeste 14 Sudoeste 0 -- -- 40
2020-08-31 13:00:00 20.9 4 Sudoeste 12 Sur 0 -- -- 48
2020-08-31 12:00:00 17.1 5 Sudeste 14 Sudeste 0 -- -- 62
2020-08-31 11:00:00 12.8 6 Sudeste 15 Sudeste 0 -- -- 81
2020-08-31 10:00:00 8.6 6 Sudeste 11 Este 0 -- -- 95
2020-08-31 09:00:00 7.5 3 Sudeste 8 Este 0 -- -- 96
2020-08-31 08:00:00 7 0 Calma 9 Sudeste 0 -- -- 96
2020-08-31 07:00:00 7.4 2 Sudeste 5 Sudeste 0 -- -- 95
2020-08-31 06:00:00 7.4 0 Calma 4 Sudeste 0 -- -- 93
2020-08-31 05:00:00 7.7 0 Calma 3 Oeste 0 -- -- 93
2020-08-31 04:00:00 8.6 0 Calma 5 Noroeste 0 -- -- 92
2020-08-31 03:00:00 9.3 2 Oeste 6 Oeste 0 -- -- 92
2020-08-31 02:00:00 9.9 2 Noroeste 7 Noroeste 0 -- -- 90
2020-08-31 01:00:00 10.5 4 Noroeste 10 Norte 0 -- -- 88
2020-08-31 00:00:00 11.3 3 Norte 9 Noroeste 0 -- -- 84
2020-08-30 23:00:00 12.4 4 Noroeste 15 Norte 0 -- -- 79
2020-08-30 22:00:00 13.5 6 Norte 21 Norte 0 -- -- 73
2020-08-30 21:00:00 14.9 10 Nordeste 23 Nordeste 0 -- -- 65
2020-08-30 20:00:00 16.4 9 Nordeste 29 Nordeste 0 -- -- 56
2020-08-30 19:00:00 18.8 11 Nordeste 24 Norte 0 -- -- 50
2020-08-30 18:00:00 19.5 12 Nordeste 27 Nordeste 0 -- -- 50
2020-08-30 17:00:00 19.5 10 Nordeste 24 Este 0 -- -- 49
2020-08-30 16:00:00 18.5 13 Nordeste 28 Norte 0 -- -- 53
2020-08-30 15:00:00 17.6 12 Nordeste 27 Nordeste 0 -- -- 59
2020-08-30 14:00:00 17.7 8 Norte 21 Norte 0 -- -- 60
2020-08-30 13:00:00 17.4 6 Nordeste 22 Nordeste 0 -- -- 54
2020-08-30 12:00:00 17 7 Este 15 Nordeste 0 -- -- 54
2020-08-30 11:00:00 15.2 7 Nordeste 14 Nordeste 0 -- -- 63
2020-08-30 10:00:00 14.1 3 Norte 8 Norte 0 -- -- 74
2020-08-30 09:00:00 11.2 0 Calma 6 Noroeste 0 -- -- 89
2020-08-30 08:00:00 10.3 3 Oeste 8 Noroeste 0 -- -- 91
2020-08-30 07:00:00 11 3 Noroeste 15 Noroeste 0 -- -- 90
2020-08-30 06:00:00 10.9 5 Noroeste 14 Norte 0 -- -- 92
2020-08-30 05:00:00 11 4 Noroeste 8 Noroeste 0 -- -- 93
2020-08-30 04:00:00 10.3 3 Oeste 10 Noroeste 0 -- -- 94
2020-08-30 03:00:00 10.7 4 Oeste 9 Noroeste 0 -- -- 93
2020-08-30 02:00:00 11.5 0 Calma 8 Norte 0 -- -- 91
2020-08-30 01:00:00 12.1 2 Norte 15 Nordeste 0 -- -- 87
2020-08-30 00:00:00 12.7 3 Noroeste 8 Oeste 0 -- -- 86
2020-08-29 23:00:00 13.1 2 Nordeste 10 Norte 0 -- -- 83
2020-08-29 22:00:00 13.3 4 Norte 22 Nordeste 0 -- -- 82
2020-08-29 21:00:00 14.9 8 Nordeste 20 Norte 0 -- -- 71
2020-08-29 20:00:00 16.7 12 Nordeste 28 Nordeste 0 -- -- 57
2020-08-29 19:00:00 19 9 Norte 25 Norte 0 -- -- 48
2020-08-29 18:00:00 17.2 10 Norte 33 Norte 0 -- -- 64
2020-08-29 17:00:00 19.2 15 Norte 32 Norte 0 -- -- 55
2020-08-29 16:00:00 18.8 10 Norte 30 Noroeste 0 -- -- 55
2020-08-29 15:00:00 18.8 9 Norte 28 Norte 0 -- -- 58
2020-08-29 14:00:00 17.8 12 Norte 26 Norte 0 -- -- 64
2020-08-29 13:00:00 14.8 7 Norte 22 Norte 0.8 -- -- 83
2020-08-29 12:00:00 14.5 7 Nordeste 20 Norte 0.2 -- -- 84
2020-08-29 11:00:00 14.1 7 Norte 19 Noroeste 0.2 -- -- 87
2020-08-29 10:00:00 13.1 4 Noroeste 15 Noroeste 0 -- -- 92
2020-08-29 09:00:00 12.6 4 Noroeste 9 Noroeste 0 -- -- 93
2020-08-29 08:00:00 11.6 3 Noroeste 7 Noroeste 0 -- -- 96
2020-08-29 07:00:00 11.5 0 Calma 7 Noroeste 0 -- -- 95
2020-08-29 06:00:00 11.8 2 Noroeste 7 Noroeste 0 -- -- 95
2020-08-29 05:00:00 12.2 2 Noroeste 8 Noroeste 0.2 -- -- 95
2020-08-29 04:00:00 12.5 0 Calma 5 Oeste 0.6 -- -- 94
2020-08-29 03:00:00 12.3 0 Calma 4 Noroeste 0 -- -- 93
2020-08-29 02:00:00 12.4 2 Oeste 7 Noroeste 0 -- -- 93
2020-08-29 01:00:00 12.7 4 Oeste 7 Oeste 0.6 -- -- 91
2020-08-29 00:00:00 13 0 Calma 5 Oeste 0 -- -- 85
2020-08-28 23:00:00 13.1 2 Oeste 8 Oeste 0 -- -- 83
2020-08-28 22:00:00 13.5 3 Noroeste 18 Noroeste 0 -- -- 79
2020-08-28 21:00:00 14.9 6 Noroeste 24 Noroeste 0 -- -- 73
2020-08-28 20:00:00 16.3 10 Noroeste 27 Oeste 0 -- -- 66
2020-08-28 19:00:00 21 8 Noroeste 23 Noroeste 0 -- -- 46
2020-08-28 18:00:00 19.7 8 Noroeste 23 Norte 0 -- -- 55
2020-08-28 17:00:00 17.2 8 Noroeste 35 Oeste 0 -- -- 66
2020-08-28 16:00:00 19.2 12 Oeste 24 Noroeste 0 -- -- 56
2020-08-28 15:00:00 19.4 9 Norte 26 Noroeste 0 -- -- 58
2020-08-28 14:00:00 20.5 7 Noroeste 20 Oeste 0 -- -- 54
2020-08-28 13:00:00 19.2 8 Noroeste 20 Noroeste 0 -- -- 56
2020-08-28 12:00:00 17 2 Nordeste 10 Oeste 0.2 -- -- 78
2020-08-28 11:00:00 15.4 4 Noroeste 8 Oeste 0 -- -- 80
2020-08-28 10:00:00 15.7 2 Oeste 4 Oeste 0 -- -- 80
2020-08-28 09:00:00 12.9 2 Oeste 7 Noroeste 0 -- -- 91
2020-08-28 08:00:00 12.6 0 Calma 6 Oeste 0 -- -- 91
2020-08-28 07:00:00 13 2 Noroeste 9 Noroeste 0 -- -- 90
2020-08-28 06:00:00 14 5 Noroeste 16 Noroeste 0 -- -- 87
2020-08-28 05:00:00 15 6 Noroeste 20 Noroeste 0 -- -- 83
2020-08-28 04:00:00 15.7 6 Noroeste 14 Noroeste 0 -- -- 89
2020-08-28 03:00:00 16.2 5 Noroeste 17 Noroeste 0 -- -- 87
2020-08-28 02:00:00 17.4 6 Noroeste 15 Noroeste 0 -- -- 87
2020-08-28 01:00:00 17.9 6 Noroeste 19 Noroeste 0 -- -- 87
2020-08-28 00:00:00 19.5 4 Noroeste 13 Oeste 0 -- -- 85
2020-08-27 23:00:00 20.1 5 Oeste 18 Oeste 0 -- -- 82
2020-08-27 22:00:00 20.7 8 Oeste 19 Oeste 0 -- -- 76
2020-08-27 21:00:00 21.7 10 Oeste 23 Oeste 0 -- -- 70
2020-08-27 20:00:00 23.2 10 Oeste 22 Oeste 0 -- -- 64
2020-08-27 19:00:00 25 11 Oeste 26 Oeste 0 -- -- 60
2020-08-27 18:00:00 26.6 11 Oeste 23 Oeste 0 -- -- 56
2020-08-27 17:00:00 25.5 8 Oeste 25 Sudoeste 0 -- -- 57
2020-08-27 16:00:00 26.2 9 Oeste 26 Oeste 0 -- -- 54
2020-08-27 15:00:00 24.1 9 Oeste 21 Oeste 0 -- -- 65
2020-08-27 14:00:00 23.4 9 Oeste 19 Oeste 0 -- -- 69
2020-08-27 13:00:00 22.2 8 Oeste 18 Oeste 0 -- -- 73
2020-08-27 12:00:00 22.4 7 Oeste 16 Oeste 0 -- -- 72
2020-08-27 11:00:00 22 5 Noroeste 16 Noroeste 0 -- -- 76
2020-08-27 10:00:00 20.9 2 Sudoeste 11 Sudoeste 0 -- -- 80
2020-08-27 09:00:00 20 0 Calma 10 Sudeste 0 -- -- 89
2020-08-27 08:00:00 19.3 3 Sudeste 6 Sudeste 0 -- -- 89
2020-08-27 07:00:00 19.5 2 Oeste 7 Noroeste 0 -- -- 89
2020-08-27 06:00:00 19.4 4 Noroeste 9 Noroeste 0 -- -- 89
2020-08-27 05:00:00 19.8 2 Noroeste 4 Oeste 0 -- -- 89
2020-08-27 04:00:00 19.9 0 Calma 6 Noroeste 0 -- -- 89
2020-08-27 03:00:00 19.8 0 Calma 5 Noroeste 0 -- -- 88
2020-08-27 02:00:00 19.9 2 Noroeste 6 Noroeste 0 -- -- 89
2020-08-27 01:00:00 20.2 2 Oeste 7 Noroeste 0 -- -- 88
2020-08-27 00:00:00 21.4 2 Norte 10 Noroeste 0 -- -- 83
2020-08-26 23:00:00 21.9 4 Norte 12 Norte 0 -- -- 83
2020-08-26 22:00:00 22.7 4 Norte 18 Nordeste 0 -- -- 80
2020-08-26 21:00:00 25.4 10 Nordeste 20 Nordeste 0 -- -- 71
2020-08-26 20:00:00 27.8 5 Noroeste 18 Noroeste 0 -- -- 57
2020-08-26 19:00:00 30.9 8 Noroeste 16 Noroeste 0 -- -- 47
2020-08-26 18:00:00 30.4 8 Oeste 16 Oeste 0 -- -- 45
2020-08-26 17:00:00 31.2 5 Noroeste 18 Oeste 0 -- -- 43
2020-08-26 16:00:00 30.8 5 Sudoeste 14 Oeste 0 -- -- 46
2020-08-26 15:00:00 30 3 Sudoeste 10 Oeste 0 -- -- 48
2020-08-26 14:00:00 27.8 6 Oeste 12 Oeste 0 -- -- 53
2020-08-26 13:00:00 25.5 2 Oeste 13 Sudeste 0 -- -- 63
2020-08-26 12:00:00 23.4 4 Sudeste 11 Sudeste 0 -- -- 74
2020-08-26 11:00:00 20 4 Sudeste 9 Sudeste 0 -- -- 89
2020-08-26 10:00:00 18.5 3 Sudeste 8 Este 0 -- -- 93
2020-08-26 09:00:00 17.9 0 Calma 5 Sudeste 0 -- -- 94
2020-08-26 08:00:00 17.4 0 Calma 4 Sudeste 0 -- -- 94
2020-08-26 07:00:00 17.5 0 Calma 7 Sudeste 0 -- -- 93
2020-08-26 06:00:00 17.6 3 Sudeste 8 Sudeste 0 -- -- 92
2020-08-26 05:00:00 18.6 0 Calma 6 Noroeste 0 -- -- 90
2020-08-26 04:00:00 19 0 Calma 6 Noroeste 0 -- -- 90
2020-08-26 03:00:00 19.3 2 Oeste 6 Noroeste 0 -- -- 88
2020-08-26 02:00:00 19.8 0 Calma 4 Oeste 0 -- -- 86
2020-08-26 01:00:00 19.8 0 Calma 4 Noroeste 0 -- -- 86
2020-08-26 00:00:00 19.5 0 Calma 3 Oeste 0 -- -- 85